Time;durP1;ratioP1;P1;durP2;ratioP2;P2;SDS_P1;SDS_P2;PMS_P1;PMS_P2;Temp;Humidity;BMP_temperature;BMP_pressure;BME280_temperature;BME280_humidity;BME280_pressure;Samples;Min_cycle;Max_cycle;Signal;HPM_P1;HPM_P2
2022/10/10 00:01:21;;;;;;;6.72;2.55;;;;;;;9.93;100.00;98820.63;5041893;28;20132;-70
2022/10/10 00:03:47;;;;;;;7.18;2.72;;;;;;;10.04;100.00;98833.63;5042572;28;20043;-70
2022/10/10 00:06:13;;;;;;;6.20;2.75;;;;;;;10.02;100.00;98836.50;5044699;28;20033;-70
2022/10/10 00:08:39;;;;;;;8.18;3.20;;;;;;;10.02;100.00;98835.69;5037067;28;20032;-70
2022/10/10 00:11:05;;;;;;;5.65;3.00;;;;;;;10.07;100.00;98833.22;5037718;28;20028;-70
2022/10/10 00:13:31;;;;;;;7.07;3.33;;;;;;;9.96;100.00;98831.06;5049994;28;20025;-70
2022/10/10 00:15:56;;;;;;;6.07;2.83;;;;;;;9.87;100.00;98808.75;5043130;28;20024;-70
2022/10/10 00:18:22;;;;;;;6.18;3.03;;;;;;;9.92;100.00;98824.38;5044417;28;20032;-70
2022/10/10 00:20:50;;;;;;;6.68;3.00;;;;;;;9.93;100.00;98835.00;5040566;28;21671;-70
2022/10/10 00:23:15;;;;;;;5.80;3.03;;;;;;;9.90;100.00;98831.84;5046978;28;20023;-70
2022/10/10 00:25:41;;;;;;;5.03;2.65;;;;;;;9.83;100.00;98816.44;5036227;28;20028;-70
2022/10/10 00:28:06;;;;;;;7.07;2.90;;;;;;;9.91;100.00;98825.44;5043606;28;20040;-70
2022/10/10 00:30:31;;;;;;;6.82;3.72;;;;;;;10.01;100.00;98815.09;5044948;28;20107;-70
2022/10/10 00:32:58;;;;;;;7.65;3.55;;;;;;;10.09;100.00;98825.75;5047635;28;20079;-70
2022/10/10 00:35:23;;;;;;;6.22;3.25;;;;;;;10.07;100.00;98815.13;5043181;28;20449;-70
2022/10/10 00:37:49;;;;;;;5.78;3.10;;;;;;;10.20;100.00;98824.34;5049813;28;20056;-70
2022/10/10 00:40:14;;;;;;;4.60;2.90;;;;;;;10.21;100.00;98820.59;5045063;28;20028;-70
2022/10/10 00:42:39;;;;;;;7.95;3.28;;;;;;;10.11;100.00;98802.03;5038879;28;20032;-70
2022/10/10 00:45:34;;;;;;;4.07;2.97;;;;;;;10.24;100.00;98818.34;5041862;28;20048;-70
2022/10/10 00:48:15;;;;;;;5.10;3.08;;;;;;;10.19;100.00;98803.72;5037564;28;20489;-70
2022/10/10 00:50:50;;;;;;;5.10;3.10;;;;;;;10.33;100.00;98808.22;5043583;28;20079;-70
2022/10/10 00:53:18;;;;;;;6.82;3.10;;;;;;;10.37;100.00;98822.16;5040109;28;20021;-70
2022/10/10 00:55:45;;;;;;;10.23;3.25;;;;;;;10.51;100.00;98804.94;5042917;28;20058;-70
2022/10/10 00:58:11;;;;;;;6.82;3.35;;;;;;;10.50;100.00;98812.22;5039554;28;20049;-70
2022/10/10 01:00:36;;;;;;;5.43;3.13;;;;;;;10.50;100.00;98808.69;5037840;28;20501;-70
2022/10/10 01:03:02;;;;;;;6.93;3.53;;;;;;;10.49;100.00;98810.56;5040536;28;20124;-70
2022/10/10 01:05:28;;;;;;;6.65;3.03;;;;;;;10.43;100.00;98799.72;5039092;28;20560;-70
2022/10/10 01:07:53;;;;;;;6.93;3.22;;;;;;;10.50;100.00;98811.38;5031742;28;20041;-70
2022/10/10 01:10:21;;;;;;;4.88;3.65;;;;;;;10.41;100.00;98791.81;5044618;28;20035;-70
2022/10/10 01:12:58;;;;;;;3.53;2.65;;;;;;;10.46;100.00;98804.72;5042984;28;20470;-70
2022/10/10 01:15:42;;;;;;;6.32;3.55;;;;;;;10.44;100.00;98801.38;5046700;28;20108;-70
2022/10/10 01:18:25;;;;;;;10.27;3.42;;;;;;;10.36;100.00;98785.34;5032099;28;20025;-70
2022/10/10 01:21:03;;;;;;;5.88;3.65;;;;;;;10.50;100.00;98798.69;5042405;28;20122;-70
2022/10/10 01:24:00;;;;;;;6.72;3.35;;;;;;;10.55;100.00;98798.09;5042564;28;20028;-70
2022/10/10 01:26:55;;;;;;;3.88;3.00;;;;;;;10.45;100.00;98792.22;5044814;28;20028;-70
2022/10/10 01:29:31;;;;;;;6.40;3.40;;;;;;;10.44;100.00;98793.28;5040470;28;20553;-71
2022/10/10 01:32:08;;;;;;;6.30;3.35;;;;;;;10.47;100.00;98790.97;5047437;28;20037;-70
2022/10/10 01:34:55;;;;;;;9.05;3.42;;;;;;;10.51;100.00;98791.44;5042700;28;20021;-70
2022/10/10 01:37:36;;;;;;;6.60;3.45;;;;;;;10.41;100.00;98775.56;5039188;28;20037;-71
2022/10/10 01:40:16;;;;;;;7.32;3.95;;;;;;;10.56;100.00;98796.19;5036847;28;20056;-71
2022/10/10 01:42:49;;;;;;;5.22;3.50;;;;;;;10.60;100.00;98790.19;5032392;28;20383;-71
2022/10/10 01:45:14;;;;;;;5.82;3.15;;;;;;;10.60;100.00;98789.38;5047075;28;20033;-71
2022/10/10 01:47:40;;;;;;;6.18;3.35;;;;;;;10.47;100.00;98773.91;5044728;28;20030;-70
2022/10/10 01:50:11;;;;;;;7.15;3.55;;;;;;;10.57;100.00;98789.78;5036691;28;20029;-70
2022/10/10 01:52:42;;;;;;;8.23;3.67;;;;;;;10.55;100.00;98795.38;5046358;28;20584;-71
2022/10/10 01:55:23;;;;;;;4.43;3.10;;;;;;;10.50;100.00;98795.97;5040397;28;20025;-71
2022/10/10 01:58:06;;;;;;;6.22;4.00;;;;;;;10.56;100.00;98783.53;5044941;28;20040;-71
2022/10/10 02:00:50;;;;;;;13.73;3.63;;;;;;;10.59;100.00;98783.13;5031464;28;20058;-71
2022/10/10 02:03:19;;;;;;;6.60;3.65;;;;;;;10.61;100.00;98786.47;5035725;28;20021;-71
2022/10/10 02:06:08;;;;;;;10.10;3.80;;;;;;;10.62;100.00;98779.19;5035942;28;20036;-71
2022/10/10 02:08:46;;;;;;;8.50;3.90;;;;;;;10.55;100.00;98765.63;5039134;28;20090;-70
2022/10/10 02:11:12;;;;;;;9.82;3.83;;;;;;;10.63;100.00;98773.53;5042006;28;20025;-71
2022/10/10 02:13:42;;;;;;;4.70;3.33;;;;;;;10.62;100.00;98777.31;5042092;28;20036;-71
2022/10/10 02:16:14;;;;;;;8.57;4.07;;;;;;;10.47;100.00;98755.81;5037011;28;20035;-71
2022/10/10 02:18:44;;;;;;;5.70;3.60;;;;;;;10.56;100.00;98767.31;5035430;28;20029;-71
2022/10/10 02:21:11;;;;;;;8.23;3.80;;;;;;;10.53;100.00;98762.28;5048731;28;20029;-71
2022/10/10 02:23:41;;;;;;;10.30;3.80;;;;;;;10.59;100.00;98771.47;5042386;28;20056;-71
2022/10/10 02:26:09;;;;;;;6.95;4.15;;;;;;;10.47;100.00;98752.28;5038044;28;20025;-71
2022/10/10 02:28:40;;;;;;;9.60;4.00;;;;;;;10.52;100.00;98766.03;5037926;28;20340;-71
2022/10/10 02:31:09;;;;;;;9.13;4.05;;;;;;;10.50;100.00;98765.41;5045989;28;20036;-71
2022/10/10 02:33:44;;;;;;;7.35;3.95;;;;;;;10.47;100.00;98763.94;5032515;28;20036;-71
2022/10/10 02:36:13;;;;;;;8.38;4.78;;;;;;;10.49;100.00;98766.44;5036918;28;20033;-71
2022/10/10 02:38:40;;;;;;;6.80;3.57;;;;;;;10.55;100.00;98776.44;5040777;28;20558;-71
2022/10/10 02:41:09;;;;;;;6.45;4.05;;;;;;;10.50;100.00;98763.53;5048132;28;20108;-71
2022/10/10 02:43:36;;;;;;;14.35;4.20;;;;;;;10.56;100.00;98772.72;5039031;28;20033;-71
2022/10/10 02:46:05;;;;;;;10.75;4.18;;;;;;;10.58;100.00;98770.63;5045286;28;20060;-71
2022/10/10 02:48:31;;;;;;;10.70;4.72;;;;;;;10.53;100.00;98760.44;5046699;28;20071;-70
2022/10/10 02:50:57;;;;;;;8.55;4.00;;;;;;;10.58;100.00;98764.38;5048344;28;20553;-70
2022/10/10 02:53:22;;;;;;;6.38;4.07;;;;;;;10.43;100.00;98751.03;5049346;28;20064;-70
2022/10/10 02:55:48;;;;;;;8.07;4.25;;;;;;;10.63;100.00;98770.84;5042957;28;20648;-70
2022/10/10 02:58:13;;;;;;;8.38;4.25;;;;;;;10.69;100.00;98780.88;5041524;28;20025;-71
2022/10/10 03:00:39;;;;;;;7.88;4.30;;;;;;;10.65;100.00;98779.59;5046587;28;20026;-70
2022/10/10 03:03:04;;;;;;;6.38;4.18;;;;;;;10.56;100.00;98763.75;5045549;28;20060;-70
2022/10/10 03:05:29;;;;;;;6.78;3.63;;;;;;;10.67;100.00;98779.41;5047473;28;20024;-70
2022/10/10 03:07:55;;;;;;;9.00;3.97;;;;;;;10.55;100.00;98764.78;5050238;28;20103;-70
2022/10/10 03:10:20;;;;;;;4.93;3.28;;;;;;;10.63;100.00;98770.84;5051563;28;20044;-70
2022/10/10 03:12:45;;;;;;;7.25;3.88;;;;;;;10.62;100.00;98774.59;5042155;28;20029;-70
2022/10/10 03:15:11;;;;;;;7.68;4.38;;;;;;;10.65;100.00;98776.06;5049913;28;20103;-70
2022/10/10 03:17:36;;;;;;;9.25;4.38;;;;;;;10.63;100.00;98773.53;5048108;28;20029;-70
2022/10/10 03:20:02;;;;;;;7.15;4.10;;;;;;;10.47;100.00;98763.94;5053961;28;20033;-71
2022/10/10 03:22:28;;;;;;;9.85;4.28;;;;;;;10.51;100.00;98773.31;5045406;28;20080;-70
2022/10/10 03:24:53;;;;;;;9.05;4.32;;;;;;;10.57;100.00;98785.19;5039443;28;20128;-70
2022/10/10 03:27:18;;;;;;;8.15;4.63;;;;;;;10.54;100.00;98785.59;5038992;28;20055;-70
2022/10/10 03:29:44;;;;;;;8.18;5.15;;;;;;;10.50;100.00;98778.91;5049033;28;20029;-70
2022/10/10 03:32:09;;;;;;;13.75;4.32;;;;;;;10.42;100.00;98768.28;5045788;28;20071;-71
2022/10/10 03:34:34;;;;;;;8.02;4.20;;;;;;;10.42;100.00;98781.81;5045148;28;20033;-70
2022/10/10 03:37:00;;;;;;;6.95;4.07;;;;;;;10.24;100.00;98769.66;5037346;28;20060;-70
2022/10/10 03:39:25;;;;;;;9.55;4.18;;;;;;;10.20;100.00;98779.22;5042386;28;20029;-70
2022/10/10 03:41:50;;;;;;;9.50;4.35;;;;;;;10.18;100.00;98791.25;5050118;28;20025;-70
2022/10/10 03:44:16;;;;;;;8.30;4.30;;;;;;;10.05;100.00;98765.81;5039763;28;20080;-70
2022/10/10 03:46:41;;;;;;;10.55;4.20;;;;;;;10.07;100.00;98766.47;5046897;28;20048;-70
2022/10/10 03:49:07;;;;;;;8.00;4.88;;;;;;;10.15;100.00;98772.75;5072733;22;20041;-62
2022/10/10 03:51:33;;;;;;;8.95;4.68;;;;;;;10.04;100.00;98766.03;5047376;28;20494;-62
2022/10/10 03:53:58;;;;;;;8.88;4.22;;;;;;;10.08;100.00;98778.09;5042466;28;20057;-62
2022/10/10 03:56:24;;;;;;;7.72;4.70;;;;;;;10.06;100.00;98770.22;5046132;28;20423;-63
2022/10/10 03:58:49;;;;;;;9.32;4.43;;;;;;;10.07;100.00;98769.16;5047032;28;20420;-61
2022/10/10 04:01:14;;;;;;;7.90;4.63;;;;;;;10.01;100.00;98775.38;5045998;28;20024;-63
2022/10/10 04:03:40;;;;;;;7.88;4.50;;;;;;;10.00;100.00;98778.28;5048133;28;20024;-63
2022/10/10 04:06:06;;;;;;;7.43;4.40;;;;;;;9.97;100.00;98779.50;5046266;28;20029;-62
2022/10/10 04:08:31;;;;;;;10.60;4.72;;;;;;;9.97;100.00;98776.81;5053299;28;20078;-62
2022/10/10 04:10:59;;;;;;;8.70;4.60;;;;;;;9.96;100.00;98777.03;5050636;28;20037;-61
2022/10/10 04:13:26;;;;;;;10.15;4.53;;;;;;;9.93;100.00;98774.69;5049889;28;20021;-62
2022/10/10 04:15:52;;;;;;;7.45;4.43;;;;;;;9.92;100.00;98775.75;5043778;28;20020;-62
2022/10/10 04:18:18;;;;;;;7.95;4.07;;;;;;;9.87;100.00;98782.56;5045854;28;20161;-61
2022/10/10 04:20:46;;;;;;;6.45;4.57;;;;;;;9.83;100.00;98777.78;5049658;28;20024;-62
2022/10/10 04:23:11;;;;;;;7.65;4.72;;;;;;;9.78;100.00;98778.38;5041350;28;20360;-62
2022/10/10 04:25:37;;;;;;;7.82;4.90;;;;;;;9.77;100.00;98779.41;5041886;28;20025;-62
2022/10/10 04:28:02;;;;;;;10.63;4.80;;;;;;;9.73;100.00;98778.13;5040710;28;20158;-62
2022/10/10 04:30:33;;;;;;;9.85;5.15;;;;;;;9.77;100.00;98789.38;5045957;28;20115;-62
2022/10/10 04:32:59;;;;;;;8.07;5.05;;;;;;;9.80;100.00;98789.00;5057456;28;21398;-62
2022/10/10 04:35:25;;;;;;;9.55;4.95;;;;;;;9.77;100.00;98779.41;5048967;28;20553;-62
2022/10/10 04:37:52;;;;;;;10.00;4.57;;;;;;;9.71;100.00;98774.78;5046708;28;20107;-61
2022/10/10 04:40:17;;;;;;;11.35;5.00;;;;;;;9.70;100.00;98781.22;5044130;28;20029;-61
2022/10/10 04:42:43;;;;;;;12.73;5.10;;;;;;;9.64;100.00;98782.00;5042337;28;20082;-61
2022/10/10 04:45:09;;;;;;;10.43;5.20;;;;;;;9.60;100.00;98783.44;5058123;28;20029;-61
2022/10/10 04:47:34;;;;;;;8.40;4.85;;;;;;;9.57;100.00;98786.56;5044583;28;20053;-61
2022/10/10 04:49:59;;;;;;;8.88;4.70;;;;;;;9.59;100.00;98782.63;5044256;28;20437;-61
2022/10/10 04:52:25;;;;;;;8.35;5.15;;;;;;;9.57;100.00;98786.56;5048639;28;20047;-61
2022/10/10 04:54:50;;;;;;;8.68;5.72;;;;;;;9.60;100.00;98783.44;5040327;28;20453;-62
2022/10/10 04:57:16;;;;;;;8.35;5.35;;;;;;;9.60;100.00;98791.56;5047397;28;20028;-62
2022/10/10 04:59:42;;;;;;;8.98;4.80;;;;;;;9.62;100.00;98782.22;5048085;28;20039;-61
2022/10/10 05:02:07;;;;;;;8.23;5.95;;;;;;;9.68;100.00;98772.50;5041268;28;20040;-62
2022/10/10 05:04:33;;;;;;;10.55;5.15;;;;;;;9.65;100.00;98765.63;5049086;28;20469;-61
2022/10/10 05:06:58;;;;;;;7.05;5.03;;;;;;;9.64;100.00;98774.75;5045228;28;20385;-61
2022/10/10 05:09:24;;;;;;;13.70;5.13;;;;;;;9.57;100.00;98781.16;5043677;28;20021;-61
2022/10/10 05:11:49;;;;;;;7.25;4.82;;;;;;;9.53;100.00;98779.88;5037402;28;20024;-61
2022/10/10 05:14:14;;;;;;;11.93;5.05;;;;;;;9.48;100.00;98783.16;5061078;28;20477;-61
2022/10/10 05:16:40;;;;;;;8.40;5.05;;;;;;;9.68;100.00;98772.50;5045908;28;20162;-63
2022/10/10 05:19:05;;;;;;;12.73;5.70;;;;;;;9.60;100.00;98778.88;5047116;28;20032;-63
2022/10/10 05:21:31;;;;;;;8.60;5.22;;;;;;;9.52;100.00;98781.72;5046172;28;20024;-63
2022/10/10 05:23:56;;;;;;;11.68;6.22;;;;;;;9.59;100.00;98779.09;5044260;28;20056;-63
2022/10/10 05:26:22;;;;;;;13.25;6.38;;;;;;;9.52;100.00;98778.22;5039402;28;20029;-63
2022/10/10 05:28:47;;;;;;;20.05;7.50;;;;;;;9.66;100.00;98785.34;5047525;28;20060;-63
2022/10/10 05:31:13;;;;;;;12.23;7.25;;;;;;;9.75;100.00;98777.94;5047570;28;20032;-63
2022/10/10 05:33:39;;;;;;;12.02;6.50;;;;;;;9.62;100.00;98782.22;5050897;28;20494;-63
2022/10/10 05:36:07;;;;;;;13.32;6.95;;;;;;;9.55;100.00;98784.03;5048169;28;20128;-63
2022/10/10 05:38:33;;;;;;;16.00;6.82;;;;;;;9.64;100.00;98784.72;5046248;28;20025;-63
2022/10/10 05:40:58;;;;;;;10.85;7.00;;;;;;;9.57;100.00;98789.25;5042270;28;20064;-63
2022/10/10 05:43:24;;;;;;;15.43;7.25;;;;;;;9.49;100.00;98782.13;5040648;28;20026;-63
2022/10/10 05:45:49;;;;;;;15.25;6.50;;;;;;;9.41;100.00;98772.31;5046038;28;20028;-62
2022/10/10 05:48:15;;;;;;;16.42;6.70;;;;;;;9.37;100.00;98773.72;5046207;28;20040;-61
2022/10/10 05:50:47;;;;;;;15.05;6.47;;;;;;;9.34;100.00;98784.91;5042234;28;20032;-62
2022/10/10 05:53:12;;;;;;;10.88;6.30;;;;;;;9.33;100.00;98788.66;5044573;28;20048;-61
2022/10/10 05:55:37;;;;;;;18.08;6.72;;;;;;;9.36;100.00;98796.38;5042223;28;20480;-61
2022/10/10 05:58:03;;;;;;;11.95;7.03;;;;;;;9.39;100.00;98798.66;5040724;28;20036;-61
2022/10/10 06:00:29;;;;;;;12.48;6.68;;;;;;;9.43;100.00;98812.59;5049177;28;20029;-61
2022/10/10 06:02:57;;;;;;;10.80;5.50;;;;;;;9.43;100.00;98813.47;5048206;28;20032;-62
2022/10/10 06:05:23;;;;;;;9.02;4.85;;;;;;;9.42;100.00;98800.97;5036767;28;20465;-61
2022/10/10 06:07:48;;;;;;;10.32;5.00;;;;;;;9.38;100.00;98804.28;5048462;28;20045;-61
2022/10/10 06:10:14;;;;;;;7.28;5.15;;;;;;;9.36;100.00;98811.75;5041357;28;20028;-62
2022/10/10 06:12:39;;;;;;;11.80;5.28;;;;;;;9.37;100.00;98814.22;5048629;28;20029;-61
2022/10/10 06:15:05;;;;;;;10.50;5.60;;;;;;;9.49;100.00;98813.72;5030927;28;20120;-61
2022/10/10 06:17:31;;;;;;;25.63;7.28;;;;;;;9.61;100.00;98818.34;5064008;28;20487;-61
2022/10/10 06:19:56;;;;;;;77.07;11.98;;;;;;;9.71;100.00;98828.81;5043494;28;20541;-61
2022/10/10 06:22:22;;;;;;;17.35;6.20;;;;;;;10.12;100.00;98813.69;5048951;28;20025;-61
2022/10/10 06:24:48;;;;;;;112.65;15.23;;;;;;;10.83;100.00;98806.06;5037770;28;20099;-61
2022/10/10 06:27:13;;;;;;;49.03;8.35;;;;;;;13.08;100.00;98803.09;5043531;28;20385;-61
2022/10/10 06:29:38;;;;;;;33.13;6.82;;;;;;;15.50;100.00;98791.69;5049645;28;20037;-61
2022/10/10 06:32:04;;;;;;;78.57;9.05;;;;;;;16.89;100.00;98783.78;5053582;28;20147;-61
2022/10/10 06:34:29;;;;;;;250.57;18.05;;;;;;;18.43;92.27;98787.84;5048168;28;20021;-62
2022/10/10 06:36:55;;;;;;;25.42;5.13;;;;;;;18.24;84.22;98789.25;5049810;28;20021;-61
2022/10/10 06:39:20;;;;;;;19.55;5.07;;;;;;;19.08;79.03;98791.63;5041494;28;20055;-61
2022/10/10 06:41:48;;;;;;;7.68;3.80;;;;;;;19.28;76.43;98788.22;5045370;28;20112;-64
2022/10/10 06:44:16;;;;;;;8.32;4.45;;;;;;;18.29;77.23;98797.53;5047430;28;20029;-61
2022/10/10 06:46:41;;;;;;;9.57;5.32;;;;;;;18.44;81.83;98803.19;5038414;28;20040;-62
2022/10/10 06:49:07;;;;;;;8.88;5.25;;;;;;;18.40;78.57;98810.28;5053377;28;20024;-61
2022/10/10 06:51:32;;;;;;;11.80;5.60;;;;;;;18.66;79.45;98810.59;5038905;28;20428;-62
2022/10/10 06:53:58;;;;;;;9.20;4.68;;;;;;;17.86;84.30;98810.06;5048239;28;20063;-61
2022/10/10 06:56:25;;;;;;;12.15;5.07;;;;;;;17.11;88.45;98808.50;5043304;28;20036;-61
2022/10/10 06:58:50;;;;;;;8.55;5.22;;;;;;;16.09;97.69;98818.19;5042525;28;20671;-61
2022/10/10 07:01:18;;;;;;;12.70;4.95;;;;;;;16.18;100.00;98825.75;5042929;28;20025;-61
2022/10/10 07:03:43;;;;;;;14.60;5.10;;;;;;;16.89;98.93;98822.03;5045171;28;20036;-61
2022/10/10 07:06:10;;;;;;;28.85;6.90;;;;;;;16.36;100.00;98813.03;5049642;28;20024;-62
2022/10/10 07:08:36;;;;;;;82.15;9.93;;;;;;;15.53;100.00;98821.19;5051075;28;20052;-61
2022/10/10 07:11:02;;;;;;;15.27;4.43;;;;;;;16.40;100.00;98825.97;5045428;28;20037;-62
2022/10/10 07:13:28;;;;;;;16.70;4.93;;;;;;;16.66;100.00;98823.72;5047624;28;20507;-61
2022/10/10 07:15:53;;;;;;;10.55;4.95;;;;;;;16.75;99.77;98825.03;5045271;28;20021;-61
2022/10/10 07:18:19;;;;;;;13.50;5.25;;;;;;;16.27;100.00;98833.56;5042868;28;20033;-60
2022/10/10 07:20:45;;;;;;;12.98;4.90;;;;;;;15.79;100.00;98830.03;5035286;28;20018;-60
2022/10/10 07:23:11;;;;;;;114.75;11.75;;;;;;;15.33;100.00;98828.88;5038522;28;20412;-59
2022/10/10 07:25:40;;;;;;;27.02;6.10;;;;;;;15.02;100.00;98829.97;5050573;28;20040;-61
2022/10/10 07:28:06;;;;;;;8.90;4.60;;;;;;;15.58;100.00;98828.69;5044784;28;20028;-61
2022/10/10 07:30:37;;;;;;;15.20;4.63;;;;;;;15.49;100.00;98825.47;5072690;28;20377;-61
2022/10/10 07:33:03;;;;;;;49.65;7.00;;;;;;;15.41;100.00;98823.09;5044481;28;20059;-61
2022/10/10 07:35:28;;;;;;;10.55;6.10;;;;;;;15.33;100.00;98828.88;5037620;28;20104;-61
2022/10/10 07:37:57;;;;;;;9.45;4.82;;;;;;;15.78;100.00;98829.22;5052490;28;20104;-61
2022/10/10 07:40:23;;;;;;;9.82;5.25;;;;;;;16.23;100.00;98841.41;5038269;28;20496;-62
2022/10/10 07:42:48;;;;;;;9.40;4.50;;;;;;;17.64;100.00;98837.31;5048425;28;20037;-61
2022/10/10 07:45:15;;;;;;;10.60;4.55;;;;;;;19.41;89.36;98831.72;5040593;28;20032;-61
2022/10/10 07:47:40;;;;;;;13.00;4.63;;;;;;;19.83;81.41;98835.63;5052045;28;20024;-60
2022/10/10 07:50:06;;;;;;;13.00;4.53;;;;;;;19.89;80.41;98831.88;5040418;28;20027;-65
2022/10/10 07:52:34;;;;;;;6.20;4.40;;;;;;;19.24;84.31;98837.31;5041159;28;20496;-65
2022/10/10 07:55:00;;;;;;;11.48;4.25;;;;;;;19.24;84.93;98839.22;5044810;28;20028;-62
2022/10/10 07:57:26;;;;;;;15.40;4.82;;;;;;;19.58;80.14;98841.75;5047006;28;20427;-62
2022/10/10 07:59:51;;;;;;;14.07;4.13;;;;;;;18.41;84.66;98847.53;5047319;28;20029;-62
2022/10/10 08:02:16;;;;;;;12.15;4.38;;;;;;;17.77;93.41;98842.47;5041854;28;20040;-64
2022/10/10 08:04:42;;;;;;;8.00;4.00;;;;;;;17.23;98.09;98840.16;5037664;28;20030;-62
2022/10/10 08:07:07;;;;;;;7.57;4.28;;;;;;;18.24;92.93;98846.75;5051003;28;20024;-62
2022/10/10 08:09:33;;;;;;;5.95;3.63;;;;;;;18.73;89.66;98839.47;5047455;28;20021;-62
2022/10/10 08:11:58;;;;;;;12.77;4.60;;;;;;;18.83;87.07;98838.78;5045691;28;20024;-61
2022/10/10 08:14:24;;;;;;;8.77;4.15;;;;;;;19.37;87.55;98836.06;5038118;28;20056;-61
2022/10/10 08:16:49;;;;;;;8.05;3.60;;;;;;;22.09;70.38;98836.13;5052158;28;20024;-61
2022/10/10 08:19:14;;;;;;;6.80;2.83;;;;;;;25.99;55.06;98833.38;5051411;28;20025;-61
2022/10/10 08:21:40;;;;;;;6.50;2.90;;;;;;;25.78;53.16;98828.19;5043010;28;20392;-61
2022/10/10 08:24:05;;;;;;;6.60;2.85;;;;;;;26.37;50.79;98836.03;5045821;28;20029;-61
2022/10/10 08:26:31;;;;;;;5.47;3.13;;;;;;;24.58;54.27;98841.50;5042400;28;20032;-61
2022/10/10 08:28:56;;;;;;;6.00;2.72;;;;;;;23.38;57.09;98842.81;5044788;28;20495;-61
2022/10/10 08:31:22;;;;;;;6.15;2.42;;;;;;;23.07;59.05;98838.59;5044840;28;20050;-60
2022/10/10 08:33:50;;;;;;;5.60;2.20;;;;;;;22.30;60.47;98841.63;5041556;28;20111;-61
2022/10/10 08:36:19;;;;;;;4.95;2.83;;;;;;;22.55;61.11;98848.97;5051217;28;20031;-61
2022/10/10 08:38:45;;;;;;;4.43;2.60;;;;;;;21.52;63.72;98848.25;5051234;28;20115;-61
2022/10/10 08:41:23;;;;;;;3.75;2.50;;;;;;;22.42;61.24;98844.88;5037322;28;20036;-62
2022/10/10 08:43:59;;;;;;;5.28;2.47;;;;;;;25.08;53.71;98828.94;5043480;28;20108;-62
2022/10/10 08:46:38;;;;;;;4.85;2.42;;;;;;;25.23;50.72;98832.63;5037874;28;20037;-62
2022/10/10 08:49:22;;;;;;;6.82;2.33;;;;;;;26.78;48.59;98832.47;5041354;28;20055;-61
2022/10/10 08:51:56;;;;;;;10.43;2.70;;;;;;;27.47;46.18;98835.13;5042320;28;20029;-62
2022/10/10 08:54:25;;;;;;;4.22;2.33;;;;;;;26.25;48.99;98836.50;5055476;28;20013;-61
2022/10/10 08:56:55;;;;;;;5.45;2.38;;;;;;;26.86;47.00;98843.66;5042772;28;20037;-63
2022/10/10 08:59:25;;;;;;;6.18;3.10;;;;;;;26.69;47.71;98842.66;5041803;28;20024;-61
2022/10/10 09:01:59;;;;;;;11.55;2.90;;;;;;;27.61;45.57;98848.97;5038759;28;20144;-61
2022/10/10 09:04:24;;;;;;;6.22;2.70;;;;;;;27.89;44.34;98839.41;5042245;28;20025;-61
2022/10/10 09:07:17;;;;;;;6.68;2.70;;;;;;;29.14;42.42;98846.88;5048570;28;20067;-61
2022/10/10 09:10:06;;;;;;;7.60;2.90;;;;;;;28.94;42.84;98839.91;5043212;28;20017;-61
2022/10/10 09:12:44;;;;;;;7.28;2.72;;;;;;;29.66;41.03;98844.13;5047969;28;20354;-61
2022/10/10 09:15:13;;;;;;;6.22;2.35;;;;;;;29.29;41.35;98843.56;5050429;28;20017;-62
2022/10/10 09:18:00;;;;;;;4.68;2.58;;;;;;;28.28;43.15;98845.34;5038689;28;20508;-62
2022/10/10 09:20:28;;;;;;;3.60;2.40;;;;;;;31.00;38.38;98839.13;5050534;28;20056;-63
2022/10/10 09:23:21;;;;;;;5.30;2.65;;;;;;;29.93;39.70;98846.56;5039903;28;20120;-62
2022/10/10 09:26:01;;;;;;;3.30;2.30;;;;;;;28.10;42.59;98844.44;5041903;28;20033;-62
2022/10/10 09:28:36;;;;;;;5.97;2.25;;;;;;;27.66;44.39;98854.41;5040002;28;20395;-61
2022/10/10 09:31:06;;;;;;;5.75;2.40;;;;;;;27.38;45.92;98848.09;5038768;28;20341;-62
2022/10/10 09:33:57;;;;;;;4.72;2.58;;;;;;;29.26;41.51;98847.84;5043269;28;20048;-62
2022/10/10 09:36:27;;;;;;;4.82;2.35;;;;;;;28.19;43.34;98845.28;5036775;28;20090;-62
2022/10/10 09:38:58;;;;;;;4.30;1.73;;;;;;;28.62;42.15;98851.09;5040485;28;20029;-63
2022/10/10 09:41:34;;;;;;;4.45;2.30;;;;;;;27.66;43.49;98857.19;5043117;28;20025;-62
2022/10/10 09:44:04;;;;;;;4.47;2.70;;;;;;;25.84;47.42;98842.81;5031664;28;20373;-61
2022/10/10 09:46:30;;;;;;;8.90;2.10;;;;;;;25.91;49.26;98843.25;5041063;28;20147;-61
2022/10/10 09:48:56;;;;;;;5.75;2.33;;;;;;;28.02;44.44;98848.81;5037524;28;20541;-61
2022/10/10 09:51:21;;;;;;;4.43;1.90;;;;;;;30.17;40.43;98814.50;5048208;22;20049;-71
2022/10/10 09:53:48;;;;;;;4.45;1.98;;;;;;;31.93;37.10;98841.09;5031614;28;20037;-70
2022/10/10 09:56:20;;;;;;;4.60;2.03;;;;;;;30.08;39.01;98839.63;5029085;28;20028;-70
2022/10/10 09:58:48;;;;;;;3.92;2.00;;;;;;;32.26;35.68;98847.47;5032133;28;20033;-74
2022/10/10 10:01:28;;;;;;;6.53;2.20;;;;;;;29.54;40.16;98830.00;5020603;28;20036;-73
2022/10/10 10:04:16;;;;;;;3.70;1.80;;;;;;;29.61;39.85;98844.28;5011103;28;20549;-73
2022/10/10 10:06:51;;;;;;;4.20;1.65;;;;;;;30.57;38.40;98848.53;5018564;28;20030;-69
2022/10/10 10:09:20;;;;;;;5.28;1.95;;;;;;;31.65;37.06;98850.88;5015551;28;20030;-71
2022/10/10 10:11:47;;;;;;;5.07;1.70;;;;;;;32.05;36.51;98847.53;5007122;28;20484;-71
2022/10/10 10:14:24;;;;;;;3.55;2.10;;;;;;;31.67;35.79;98834.53;5010480;28;20726;-69
2022/10/10 10:16:51;;;;;;;5.38;2.15;;;;;;;32.24;36.11;98846.19;5014542;28;20041;-68
2022/10/10 10:19:36;;;;;;;3.90;1.40;;;;;;;33.98;33.00;98832.47;5014664;28;20387;-70
2022/10/10 10:22:02;;;;;;;3.13;1.70;;;;;;;31.95;35.11;98827.56;5002741;28;20029;-69
2022/10/10 10:24:35;;;;;;;2.83;1.75;;;;;;;31.76;36.67;98844.84;5013121;28;20609;-70
2022/10/10 10:27:16;;;;;;;5.53;1.80;;;;;;;30.80;37.77;98842.66;5014846;28;20029;-70
2022/10/10 10:29:46;;;;;;;2.90;1.80;;;;;;;28.88;41.54;98832.84;5015782;28;20029;-69
2022/10/10 10:32:24;;;;;;;5.75;2.30;;;;;;;29.39;40.80;98850.81;5009167;28;20426;-68
2022/10/10 10:35:08;;;;;;;7.78;2.30;;;;;;;29.08;41.47;98840.59;5009706;28;20026;-70
2022/10/10 10:37:42;;;;;;;4.60;2.13;;;;;;;29.30;40.66;98847.22;5032172;28;20360;-69
2022/10/10 10:40:36;;;;;;;3.78;1.65;;;;;;;29.91;40.03;98820.94;5022538;28;20340;-69
2022/10/10 10:43:30;;;;;;;5.32;1.88;;;;;;;30.91;38.84;98826.38;5010426;28;20105;-70
2022/10/10 10:46:10;;;;;;;5.50;1.75;;;;;;;32.21;36.44;98841.28;5020789;28;20418;-70
2022/10/10 10:48:53;;;;;;;7.20;2.30;;;;;;;30.48;38.37;98844.97;5013870;28;20400;-69
2022/10/10 10:51:37;;;;;;;3.38;1.60;;;;;;;30.18;39.64;98844.03;5013408;28;20040;-69
2022/10/10 10:54:32;;;;;;;5.18;1.60;;;;;;;29.68;40.49;98839.88;5012186;28;20029;-69
2022/10/10 10:57:15;;;;;;;6.53;2.20;;;;;;;27.32;44.41;98845.44;5022952;28;20021;-69
2022/10/10 11:00:16;;;;;;;7.60;2.05;;;;;;;27.26;44.76;98846.72;5018824;28;20442;-71
2022/10/10 11:02:53;;;;;;;6.75;2.00;;;;;;;26.91;46.06;98841.91;5002124;28;20030;-72
2022/10/10 11:05:30;;;;;;;5.43;2.20;;;;;;;27.53;45.07;98842.19;5025197;28;20137;-72
2022/10/10 11:08:11;;;;;;;5.35;1.77;;;;;;;27.57;45.11;98836.84;5005482;28;20658;-71
2022/10/10 11:10:57;;;;;;;8.57;1.98;;;;;;;28.94;43.18;98834.34;5011822;28;20025;-71
2022/10/10 11:13:50;;;;;;;4.72;1.50;;;;;;;30.25;40.70;98827.63;5021009;28;20035;-72
2022/10/10 11:16:23;;;;;;;3.90;1.88;;;;;;;31.28;38.49;98835.00;5009122;28;20041;-72
2022/10/10 11:19:15;;;;;;;5.90;1.67;;;;;;;31.90;36.84;98834.16;5024322;28;20538;-71
2022/10/10 11:21:48;;;;;;;5.25;1.45;;;;;;;31.92;36.16;98833.84;5024446;28;20570;-65
2022/10/10 11:24:24;;;;;;;5.32;1.50;;;;;;;31.42;37.18;98830.81;5021995;28;20033;-63
2022/10/10 11:26:54;;;;;;;6.30;1.60;;;;;;;32.11;36.18;98822.13;5024545;28;20048;-63
2022/10/10 11:29:31;;;;;;;7.65;1.55;;;;;;;31.28;36.99;98813.44;5021350;28;20403;-72
2022/10/10 11:32:06;;;;;;;7.88;1.75;;;;;;;32.34;35.13;98831.75;5026672;28;20170;-75
2022/10/10 11:34:41;;;;;;;5.63;1.48;;;;;;;32.33;35.58;98823.69;5013194;28;20019;-73
2022/10/10 11:37:25;;;;;;;8.00;1.48;;;;;;;31.48;36.59;98830.63;5022298;28;20029;-74
2022/10/10 11:40:02;;;;;;;6.43;1.75;;;;;;;32.98;35.21;98799.44;5031608;28;20150;-73